Time;durP1;ratioP1;P1;durP2;ratioP2;P2;SDS_P1;SDS_P2;PMS_P1;PMS_P2;Temp;Humidity;BMP_temperature;BMP_pressure;BME280_temperature;BME280_humidity;BME280_pressure;Samples;Min_cycle;Max_cycle;Signal;HPM_P1;HPM_P2
2023/05/20 00:00:58;;;;;;;1.97;1.50;;;;;;;;;;5074176;28;20203;-52
2023/05/20 00:03:25;;;;;;;2.00;1.67;;;;;;;;;;5074204;28;20204;-52
2023/05/20 00:05:51;;;;;;;3.10;1.50;;;;;;;;;;5074095;28;20188;-52
2023/05/20 00:08:18;;;;;;;2.60;1.50;;;;;;;;;;5074235;28;20253;-53
2023/05/20 00:10:44;;;;;;;1.70;1.60;;;;;;;;;;5070293;28;20642;-55
2023/05/20 00:13:10;;;;;;;1.73;1.50;;;;;;;;;;5074100;28;20191;-55
2023/05/20 00:15:36;;;;;;;1.60;1.50;;;;;;;;;;5074108;28;20199;-55
2023/05/20 00:18:02;;;;;;;3.50;1.70;;;;;;;;;;5074095;28;20187;-55
2023/05/20 00:20:30;;;;;;;2.43;1.40;;;;;;;;;;5073755;28;20227;-56
2023/05/20 00:22:56;;;;;;;2.03;1.70;;;;;;;;;;5074034;28;20203;-55
2023/05/20 00:25:22;;;;;;;2.03;1.50;;;;;;;;;;5074102;28;20283;-55
2023/05/20 00:27:48;;;;;;;3.53;1.67;;;;;;;;;;5073809;28;20298;-55
2023/05/20 00:30:14;;;;;;;2.00;1.50;;;;;;;;;;5073803;28;20680;-55
2023/05/20 00:32:40;;;;;;;2.20;1.77;;;;;;;;;;5073611;28;20226;-56
2023/05/20 00:35:06;;;;;;;1.53;1.40;;;;;;;;;;5073506;28;20714;-56
2023/05/20 00:37:34;;;;;;;1.50;1.40;;;;;;;;;;5073735;28;20195;-56
2023/05/20 00:40:00;;;;;;;1.60;1.50;;;;;;;;;;5073480;28;20234;-55
2023/05/20 00:42:26;;;;;;;2.63;1.87;;;;;;;;;;5073366;28;20681;-55
2023/05/20 00:44:53;;;;;;;1.57;1.43;;;;;;;;;;5073397;28;20234;-56
2023/05/20 00:47:19;;;;;;;1.50;1.40;;;;;;;;;;5073375;28;20658;-57
2023/05/20 00:49:46;;;;;;;1.50;1.40;;;;;;;;;;5073273;28;20658;-56
2023/05/20 00:52:13;;;;;;;3.20;1.50;;;;;;;;;;5072264;28;20206;-55
2023/05/20 00:54:40;;;;;;;1.60;1.50;;;;;;;;;;5073138;28;20203;-55
2023/05/20 00:57:07;;;;;;;1.53;1.20;;;;;;;;;;5073398;28;20207;-55
2023/05/20 00:59:33;;;;;;;4.23;1.80;;;;;;;;;;5073253;28;20220;-54
2023/05/20 01:01:59;;;;;;;1.43;1.30;;;;;;;;;;5073083;28;20731;-55
2023/05/20 01:04:26;;;;;;;2.77;1.63;;;;;;;;;;5072955;28;20253;-54
2023/05/20 01:06:52;;;;;;;1.50;1.23;;;;;;;;;;5073210;28;20203;-54
2023/05/20 01:09:18;;;;;;;1.50;1.40;;;;;;;;;;5073145;28;20269;-55
2023/05/20 01:11:48;;;;;;;2.47;1.50;;;;;;;;;;5072926;28;20230;-54
2023/05/20 01:14:15;;;;;;;1.87;1.50;;;;;;;;;;5073039;28;20214;-55
2023/05/20 01:16:42;;;;;;;3.13;1.77;;;;;;;;;;5072860;28;20326;-57
2023/05/20 01:19:13;;;;;;;1.67;1.57;;;;;;;;;;5072880;28;20255;-55
2023/05/20 01:21:40;;;;;;;2.03;1.40;;;;;;;;;;5072906;28;20200;-55
2023/05/20 01:24:07;;;;;;;1.93;1.20;;;;;;;;;;5072806;28;20666;-55
2023/05/20 01:26:37;;;;;;;4.20;1.40;;;;;;;;;;5072922;28;20556;-55
2023/05/20 01:29:03;;;;;;;1.67;1.43;;;;;;;;;;5072822;28;20215;-55
2023/05/20 01:31:30;;;;;;;2.20;1.53;;;;;;;;;;5072616;28;20206;-56
2023/05/20 01:33:57;;;;;;;1.60;1.50;;;;;;;;;;5072413;28;20195;-59
2023/05/20 01:36:23;;;;;;;1.20;1.10;;;;;;;;;;5072481;28;20241;-56
2023/05/20 01:38:50;;;;;;;2.17;1.40;;;;;;;;;;5072421;28;20224;-56
2023/05/20 01:41:18;;;;;;;3.33;1.50;;;;;;;;;;5072643;28;20290;-56
2023/05/20 01:43:45;;;;;;;3.63;1.40;;;;;;;;;;5072252;28;20580;-55
2023/05/20 01:46:11;;;;;;;4.40;1.60;;;;;;;;;;5072379;28;20195;-56
2023/05/20 01:48:37;;;;;;;1.60;1.50;;;;;;;;;;5072320;28;20192;-56
2023/05/20 01:51:03;;;;;;;2.17;1.60;;;;;;;;;;5072466;28;20200;-56
2023/05/20 01:53:29;;;;;;;1.97;1.50;;;;;;;;;;5072213;28;20221;-56
2023/05/20 01:55:55;;;;;;;1.40;1.30;;;;;;;;;;5072071;28;20200;-56
2023/05/20 01:58:22;;;;;;;2.00;1.27;;;;;;;;;;5072239;28;20249;-56
2023/05/20 02:00:48;;;;;;;5.50;1.77;;;;;;;;;;5072187;28;20200;-56
2023/05/20 02:03:14;;;;;;;1.47;1.23;;;;;;;;;;5071669;28;20226;-56
2023/05/20 02:05:40;;;;;;;2.13;1.33;;;;;;;;;;5071981;28;20251;-56
2023/05/20 02:08:06;;;;;;;1.83;1.43;;;;;;;;;;5072322;28;20204;-56
2023/05/20 02:10:32;;;;;;;2.23;1.50;;;;;;;;;;5072118;28;20198;-56
2023/05/20 02:12:58;;;;;;;2.20;1.43;;;;;;;;;;5071892;28;20751;-55
2023/05/20 02:15:25;;;;;;;1.23;1.13;;;;;;;;;;5072013;28;20305;-56
2023/05/20 02:17:52;;;;;;;2.53;1.30;;;;;;;;;;5071982;28;20203;-56
2023/05/20 02:20:18;;;;;;;2.13;1.40;;;;;;;;;;5071837;28;20227;-56
2023/05/20 02:22:44;;;;;;;1.47;1.30;;;;;;;;;;5071763;28;20203;-56
2023/05/20 02:25:10;;;;;;;2.23;1.30;;;;;;;;;;5071907;28;20818;-56
2023/05/20 02:27:36;;;;;;;1.50;1.20;;;;;;;;;;5071915;28;20199;-56
2023/05/20 02:30:02;;;;;;;3.03;1.60;;;;;;;;;;5071769;28;20334;-56
2023/05/20 02:32:30;;;;;;;2.50;1.40;;;;;;;;;;5071733;28;20277;-56
2023/05/20 02:34:56;;;;;;;2.37;1.30;;;;;;;;;;5071435;28;20258;-56
2023/05/20 02:37:22;;;;;;;2.23;1.40;;;;;;;;;;5071995;28;20199;-56
2023/05/20 02:39:48;;;;;;;1.40;1.30;;;;;;;;;;5071590;28;20234;-56
2023/05/20 02:42:14;;;;;;;1.70;1.40;;;;;;;;;;5071750;28;20199;-56
2023/05/20 02:44:40;;;;;;;1.70;1.27;;;;;;;;;;5071592;28;20199;-57
2023/05/20 02:47:06;;;;;;;2.13;1.70;;;;;;;;;;5071719;28;20269;-56
2023/05/20 02:49:33;;;;;;;1.57;1.47;;;;;;;;;;5071675;28;20650;-56
2023/05/20 02:51:59;;;;;;;1.47;1.37;;;;;;;;;;5071494;28;20199;-56
2023/05/20 02:54:25;;;;;;;2.60;1.50;;;;;;;;;;5071582;28;20198;-56
2023/05/20 02:56:51;;;;;;;4.27;1.70;;;;;;;;;;5071543;28;20196;-56
2023/05/20 02:59:17;;;;;;;2.23;1.30;;;;;;;;;;5071556;28;20311;-56
2023/05/20 03:01:43;;;;;;;2.27;1.97;;;;;;;;;;5071373;28;20616;-56
2023/05/20 03:04:10;;;;;;;2.20;1.50;;;;;;;;;;5071406;28;20215;-56
2023/05/20 03:06:37;;;;;;;2.40;1.40;;;;;;;;;;5071578;28;20673;-56
2023/05/20 03:09:04;;;;;;;2.00;1.50;;;;;;;;;;5071398;28;20227;-55
2023/05/20 03:11:30;;;;;;;2.77;1.67;;;;;;;;;;5071531;28;20290;-56
2023/05/20 03:13:57;;;;;;;1.77;1.50;;;;;;;;;;5071387;28;20806;-56
2023/05/20 03:16:23;;;;;;;1.43;1.33;;;;;;;;;;5075262;28;20261;-56
2023/05/20 03:18:50;;;;;;;1.67;1.57;;;;;;;;;;5075011;28;20719;-56
2023/05/20 03:21:17;;;;;;;1.63;1.37;;;;;;;;;;5075297;28;20290;-56
2023/05/20 03:23:44;;;;;;;1.93;1.60;;;;;;;;;;5075042;28;20210;-56
2023/05/20 03:26:10;;;;;;;1.60;1.50;;;;;;;;;;5074701;28;20692;-56
2023/05/20 03:28:36;;;;;;;1.83;1.67;;;;;;;;;;5074851;28;20195;-56
2023/05/20 03:31:03;;;;;;;1.50;1.40;;;;;;;;;;5073876;28;20207;-56
2023/05/20 03:33:30;;;;;;;2.27;1.50;;;;;;;;;;5074715;28;20195;-57
2023/05/20 03:35:56;;;;;;;1.77;1.53;;;;;;;;;;5074616;28;20239;-56
2023/05/20 03:38:22;;;;;;;2.17;1.90;;;;;;;;;;5074662;28;20203;-57
2023/05/20 03:40:49;;;;;;;2.60;1.73;;;;;;;;;;5074740;28;20242;-56
2023/05/20 03:43:15;;;;;;;1.77;1.40;;;;;;;;;;5074253;28;20658;-56
2023/05/20 03:45:41;;;;;;;1.40;1.30;;;;;;;;;;5074675;28;20204;-56
2023/05/20 03:48:07;;;;;;;1.60;1.50;;;;;;;;;;5074411;28;20257;-56
2023/05/20 03:50:33;;;;;;;1.87;1.40;;;;;;;;;;5074594;28;20198;-56
2023/05/20 03:52:59;;;;;;;1.53;1.43;;;;;;;;;;5074408;28;20719;-56
2023/05/20 03:55:26;;;;;;;2.67;1.70;;;;;;;;;;5074201;28;20282;-56
2023/05/20 03:57:54;;;;;;;1.90;1.40;;;;;;;;;;5074484;28;20666;-56
2023/05/20 04:00:20;;;;;;;1.73;1.40;;;;;;;;;;5074242;28;20242;-56
2023/05/20 04:02:46;;;;;;;2.37;1.57;;;;;;;;;;5074345;28;20205;-56
2023/05/20 04:05:13;;;;;;;2.03;1.37;;;;;;;;;;5074068;28;20225;-56
2023/05/20 04:07:38;;;;;;;1.50;1.40;;;;;;;;;;5074383;28;20234;-56
2023/05/20 04:10:05;;;;;;;2.47;1.20;;;;;;;;;;5074165;28;20218;-57
2023/05/20 04:12:31;;;;;;;1.60;1.50;;;;;;;;;;5074175;28;20199;-56
2023/05/20 04:15:00;;;;;;;2.07;1.60;;;;;;;;;;5074041;28;20210;-56
2023/05/20 04:17:28;;;;;;;1.93;1.63;;;;;;;;;;5073925;28;20203;-57
2023/05/20 04:19:55;;;;;;;2.63;1.47;;;;;;;;;;5073930;28;20246;-56
2023/05/20 04:22:22;;;;;;;1.63;1.53;;;;;;;;;;5073949;28;20199;-56
2023/05/20 04:24:48;;;;;;;2.70;1.60;;;;;;;;;;5073905;28;20739;-56
2023/05/20 04:27:15;;;;;;;1.23;1.13;;;;;;;;;;5073604;28;20274;-57
2023/05/20 04:29:44;;;;;;;2.97;1.57;;;;;;;;;;5073903;28;20195;-56
2023/05/20 04:32:11;;;;;;;1.70;1.40;;;;;;;;;;5073513;28;20287;-56
2023/05/20 04:34:38;;;;;;;2.20;1.50;;;;;;;;;;5073479;28;20249;-56
2023/05/20 04:37:06;;;;;;;2.70;1.60;;;;;;;;;;5073918;28;20219;-56
2023/05/20 04:39:32;;;;;;;1.40;1.30;;;;;;;;;;5073432;28;20255;-56
2023/05/20 04:41:58;;;;;;;2.07;1.53;;;;;;;;;;5073551;28;20199;-56
2023/05/20 04:44:25;;;;;;;2.50;1.60;;;;;;;;;;5073443;28;20225;-56
2023/05/20 04:46:51;;;;;;;2.57;1.47;;;;;;;;;;5073651;28;20234;-56
2023/05/20 04:49:17;;;;;;;2.23;1.70;;;;;;;;;;5073163;28;20198;-57
2023/05/20 04:51:46;;;;;;;2.27;1.30;;;;;;;;;;5073384;28;20225;-56
2023/05/20 04:54:12;;;;;;;1.40;1.30;;;;;;;;;;5073250;28;20622;-56
2023/05/20 04:56:39;;;;;;;2.27;1.50;;;;;;;;;;5073215;28;20261;-56
2023/05/20 04:59:05;;;;;;;2.43;1.60;;;;;;;;;;5073288;28;20234;-56
2023/05/20 05:01:31;;;;;;;2.27;1.60;;;;;;;;;;5073014;28;20275;-56
2023/05/20 05:03:57;;;;;;;1.50;1.40;;;;;;;;;;5072948;28;20215;-56
2023/05/20 05:06:23;;;;;;;2.17;1.50;;;;;;;;;;5072942;28;20653;-55
2023/05/20 05:08:50;;;;;;;2.07;1.50;;;;;;;;;;5073160;28;20211;-56
2023/05/20 05:11:16;;;;;;;2.30;1.60;;;;;;;;;;5072814;28;20207;-57
2023/05/20 05:13:42;;;;;;;2.20;1.30;;;;;;;;;;5072902;28;20195;-56
2023/05/20 05:16:08;;;;;;;1.53;1.30;;;;;;;;;;5072814;28;20208;-55
2023/05/20 05:18:34;;;;;;;1.57;1.40;;;;;;;;;;5072854;28;20227;-55
2023/05/20 05:21:01;;;;;;;1.67;1.57;;;;;;;;;;5072729;28;20223;-55
2023/05/20 05:23:27;;;;;;;2.90;1.70;;;;;;;;;;5072585;28;20199;-55
2023/05/20 05:25:54;;;;;;;1.77;1.53;;;;;;;;;;5072813;28;20257;-55
2023/05/20 05:28:20;;;;;;;1.40;1.30;;;;;;;;;;5072602;28;20653;-55
2023/05/20 05:30:46;;;;;;;3.60;1.50;;;;;;;;;;5070747;28;20286;-56
2023/05/20 05:33:13;;;;;;;2.40;1.63;;;;;;;;;;5070777;28;20282;-56
2023/05/20 05:35:40;;;;;;;1.37;1.27;;;;;;;;;;5072222;28;20247;-56
2023/05/20 05:38:06;;;;;;;1.40;1.30;;;;;;;;;;5071984;28;20203;-56
2023/05/20 05:40:32;;;;;;;1.73;1.50;;;;;;;;;;5072416;28;20561;-56
2023/05/20 05:42:59;;;;;;;2.53;1.57;;;;;;;;;;5072442;28;20199;-56
2023/05/20 05:45:25;;;;;;;1.60;1.50;;;;;;;;;;5072106;28;20208;-56
2023/05/20 05:47:51;;;;;;;2.00;1.70;;;;;;;;;;5072359;28;20188;-56
2023/05/20 05:50:18;;;;;;;2.50;1.47;;;;;;;;;;5072128;28;20286;-56
2023/05/20 05:52:43;;;;;;;1.70;1.50;;;;;;;;;;5072344;28;20207;-56
2023/05/20 05:55:10;;;;;;;2.27;1.53;;;;;;;;;;5072178;28;20262;-56
2023/05/20 05:57:36;;;;;;;1.90;1.67;;;;;;;;;;5072075;28;20571;-56
2023/05/20 06:00:04;;;;;;;2.77;1.60;;;;;;;;;;5072073;28;20253;-56
2023/05/20 06:02:34;;;;;;;2.80;1.43;;;;;;;;;;5071874;28;20191;-56
2023/05/20 06:05:00;;;;;;;2.40;1.47;;;;;;;;;;5071894;28;20299;-56
2023/05/20 06:07:26;;;;;;;1.83;1.47;;;;;;;;;;5071813;28;20225;-55
2023/05/20 06:09:52;;;;;;;1.50;1.40;;;;;;;;;;5072066;28;20191;-56
2023/05/20 06:12:18;;;;;;;2.17;1.60;;;;;;;;;;5071905;28;20306;-56
2023/05/20 06:14:44;;;;;;;1.70;1.60;;;;;;;;;;5071854;28;20297;-56
2023/05/20 06:17:12;;;;;;;2.87;1.60;;;;;;;;;;5071838;28;20200;-56
2023/05/20 06:19:38;;;;;;;3.83;1.83;;;;;;;;;;5071883;28;20228;-56
2023/05/20 06:22:04;;;;;;;3.77;2.13;;;;;;;;;;5071925;28;20209;-56
2023/05/20 06:24:30;;;;;;;2.70;1.77;;;;;;;;;;5071736;28;20215;-56
2023/05/20 06:26:56;;;;;;;2.90;1.60;;;;;;;;;;5071836;28;20249;-56
2023/05/20 06:29:22;;;;;;;1.60;1.50;;;;;;;;;;5071638;28;20195;-55
2023/05/20 06:31:48;;;;;;;1.63;1.50;;;;;;;;;;5071850;28;20249;-56
2023/05/20 06:34:16;;;;;;;1.73;1.60;;;;;;;;;;5071597;28;20223;-56
2023/05/20 06:36:42;;;;;;;1.77;1.50;;;;;;;;;;5071357;28;20653;-56
2023/05/20 06:39:11;;;;;;;1.47;1.37;;;;;;;;;;5071653;28;20215;-57
2023/05/20 06:41:37;;;;;;;3.57;1.57;;;;;;;;;;5071629;28;20211;-56
2023/05/20 06:44:03;;;;;;;2.90;1.90;;;;;;;;;;5071667;28;20196;-55
2023/05/20 06:46:29;;;;;;;2.40;1.83;;;;;;;;;;5071246;28;20195;-56
2023/05/20 06:48:55;;;;;;;1.90;1.60;;;;;;;;;;5073002;28;20332;-56
2023/05/20 06:51:23;;;;;;;2.77;1.80;;;;;;;;;;5075639;28;20218;-56
2023/05/20 06:53:49;;;;;;;3.57;1.57;;;;;;;;;;5075736;28;20207;-56
2023/05/20 06:56:15;;;;;;;1.77;1.63;;;;;;;;;;5075544;28;20207;-56
2023/05/20 06:58:41;;;;;;;2.70;1.70;;;;;;;;;;5075245;28;20191;-57
2023/05/20 07:01:07;;;;;;;4.43;1.80;;;;;;;;;;5075480;28;20277;-56
2023/05/20 07:03:33;;;;;;;2.90;1.80;;;;;;;;;;5075277;28;20199;-56
2023/05/20 07:05:59;;;;;;;2.20;1.70;;;;;;;;;;5075282;28;20277;-56
2023/05/20 07:08:26;;;;;;;1.70;1.43;;;;;;;;;;5075232;28;20196;-55
2023/05/20 07:10:54;;;;;;;2.63;1.73;;;;;;;;;;5075351;28;20679;-56
2023/05/20 07:13:22;;;;;;;1.77;1.67;;;;;;;;;;5075264;28;20208;-56
2023/05/20 07:15:48;;;;;;;2.43;2.00;;;;;;;;;;5075315;28;20216;-55
2023/05/20 07:18:15;;;;;;;1.70;1.60;;;;;;;;;;5073049;28;20188;-55
2023/05/20 07:20:41;;;;;;;3.73;1.70;;;;;;;;;;5074970;28;20249;-56
2023/05/20 07:23:06;;;;;;;3.10;1.50;;;;;;;;;;5075374;28;20694;-56
2023/05/20 07:25:34;;;;;;;2.30;1.60;;;;;;;;;;5075140;28;20273;-56
2023/05/20 07:28:00;;;;;;;2.03;1.60;;;;;;;;;;5075083;28;20278;-56
2023/05/20 07:30:26;;;;;;;1.97;1.80;;;;;;;;;;5074692;28;20229;-55
2023/05/20 07:32:52;;;;;;;2.37;1.60;;;;;;;;;;5075002;28;20197;-55
2023/05/20 07:35:18;;;;;;;1.60;1.50;;;;;;;;;;5074724;28;20727;-55
2023/05/20 07:37:44;;;;;;;2.73;1.70;;;;;;;;;;5073597;28;20229;-56
2023/05/20 07:40:10;;;;;;;2.30;1.60;;;;;;;;;;5074833;28;20707;-56
2023/05/20 07:42:38;;;;;;;2.57;1.50;;;;;;;;;;5074676;28;20682;-57
2023/05/20 07:45:05;;;;;;;2.97;1.87;;;;;;;;;;5075030;28;20297;-57
2023/05/20 07:47:31;;;;;;;3.10;1.60;;;;;;;;;;5074808;28;20252;-57
2023/05/20 07:49:57;;;;;;;1.70;1.60;;;;;;;;;;5074612;28;20578;-57
2023/05/20 07:52:23;;;;;;;2.33;1.90;;;;;;;;;;5074528;28;20299;-57
2023/05/20 07:54:49;;;;;;;1.93;1.50;;;;;;;;;;5074723;28;20276;-57
2023/05/20 07:57:15;;;;;;;1.73;1.53;;;;;;;;;;5074501;28;20195;-57
2023/05/20 07:59:43;;;;;;;3.23;1.70;;;;;;;;;;5074290;28;20280;-56
2023/05/20 08:02:09;;;;;;;2.37;1.50;;;;;;;;;;5073831;28;20684;-56
2023/05/20 08:04:36;;;;;;;2.37;1.80;;;;;;;;;;5074345;28;20215;-58
2023/05/20 08:07:02;;;;;;;5.53;2.03;;;;;;;;;;5074287;28;20275;-58
2023/05/20 08:09:28;;;;;;;2.17;1.30;;;;;;;;;;5074242;28;20619;-59
2023/05/20 08:11:54;;;;;;;2.27;1.57;;;;;;;;;;5074224;28;20608;-56
2023/05/20 08:14:20;;;;;;;1.67;1.43;;;;;;;;;;5074179;28;20716;-57
2023/05/20 08:16:47;;;;;;;2.50;1.63;;;;;;;;;;5074035;28;20248;-58
2023/05/20 08:19:13;;;;;;;2.13;1.60;;;;;;;;;;5073561;28;20222;-58
2023/05/20 08:21:40;;;;;;;3.63;1.80;;;;;;;;;;5074027;28;20678;-56
2023/05/20 08:24:06;;;;;;;2.90;1.97;;;;;;;;;;5073971;28;20630;-57
2023/05/20 08:26:32;;;;;;;2.70;1.70;;;;;;;;;;5073812;28;20294;-58
2023/05/20 08:28:58;;;;;;;1.73;1.50;;;;;;;;;;5073858;28;20211;-57
2023/05/20 08:31:24;;;;;;;5.83;1.60;;;;;;;;;;5073850;28;20209;-58
2023/05/20 08:33:51;;;;;;;2.63;2.07;;;;;;;;;;5071695;28;20232;-58
2023/05/20 08:36:18;;;;;;;1.43;1.33;;;;;;;;;;5073498;28;20608;-57
2023/05/20 08:38:44;;;;;;;1.93;1.37;;;;;;;;;;5073837;28;20252;-58
2023/05/20 08:41:10;;;;;;;3.40;1.70;;;;;;;;;;5073582;28;20231;-57
2023/05/20 08:43:37;;;;;;;1.70;1.57;;;;;;;;;;5069366;28;20198;-57
2023/05/20 08:46:05;;;;;;;2.87;1.80;;;;;;;;;;5073156;28;20199;-58
2023/05/20 08:48:31;;;;;;;3.27;1.70;;;;;;;;;;5073004;28;20283;-57
2023/05/20 08:51:00;;;;;;;2.50;1.70;;;;;;;;;;5073203;28;20211;-56
2023/05/20 08:53:26;;;;;;;1.60;1.50;;;;;;;;;;5073115;28;20204;-56
2023/05/20 08:55:53;;;;;;;3.13;1.70;;;;;;;;;;5073416;28;20283;-57
2023/05/20 08:58:20;;;;;;;3.20;1.77;;;;;;;;;;5072997;28;20266;-57
2023/05/20 09:00:46;;;;;;;3.33;1.40;;;;;;;;;;5073158;28;20587;-57
2023/05/20 09:03:12;;;;;;;2.83;1.97;;;;;;;;;;5072999;28;20699;-57
2023/05/20 09:05:38;;;;;;;3.00;1.80;;;;;;;;;;5073091;28;20220;-57
2023/05/20 09:08:06;;;;;;;1.67;1.57;;;;;;;;;;5073088;28;20279;-57
2023/05/20 09:10:32;;;;;;;4.20;1.90;;;;;;;;;;5072639;28;20250;-56
2023/05/20 09:12:59;;;;;;;3.03;1.70;;;;;;;;;;5071768;28;20222;-57
2023/05/20 09:15:25;;;;;;;3.30;1.60;;;;;;;;;;5072453;28;20620;-58
2023/05/20 09:17:51;;;;;;;3.03;2.83;;;;;;;;;;5072728;28;20654;-58
2023/05/20 09:20:17;;;;;;;1.97;1.77;;;;;;;;;;5072275;28;20224;-58
2023/05/20 09:22:43;;;;;;;3.83;1.73;;;;;;;;;;5072410;28;20192;-57
2023/05/20 09:25:12;;;;;;;1.93;1.63;;;;;;;;;;5072367;28;20191;-57
2023/05/20 09:27:39;;;;;;;2.53;1.53;;;;;;;;;;5072142;28;20234;-58
2023/05/20 09:30:06;;;;;;;6.20;1.67;;;;;;;;;;5072264;28;20181;-57
2023/05/20 09:32:32;;;;;;;3.87;1.40;;;;;;;;;;5071891;28;20219;-58
2023/05/20 09:35:00;;;;;;;2.37;1.87;;;;;;;;;;5072353;28;20231;-57
2023/05/20 09:37:27;;;;;;;2.37;1.47;;;;;;;;;;5072315;28;20207;-57
2023/05/20 09:39:58;;;;;;;2.10;1.47;;;;;;;;;;5072365;28;20229;-57
2023/05/20 09:42:37;;;;;;;3.27;1.60;;;;;;;;;;5072322;28;20287;-56
2023/05/20 09:45:04;;;;;;;1.50;1.30;;;;;;;;;;5072374;28;20199;-57
2023/05/20 09:47:30;;;;;;;2.13;1.93;;;;;;;;;;5072165;28;20231;-57
2023/05/20 09:49:57;;;;;;;3.80;1.73;;;;;;;;;;5072437;28;20194;-57
2023/05/20 09:52:23;;;;;;;1.70;1.57;;;;;;;;;;5072260;28;20254;-56
2023/05/20 09:54:49;;;;;;;1.50;1.40;;;;;;;;;;5072423;28;20215;-57
2023/05/20 09:57:15;;;;;;;1.60;1.47;;;;;;;;;;5072282;28;20204;-56
2023/05/20 09:59:43;;;;;;;2.43;1.70;;;;;;;;;;5072160;28;20229;-57
2023/05/20 10:02:09;;;;;;;4.83;1.57;;;;;;;;;;5072107;28;20760;-56
2023/05/20 10:04:36;;;;;;;2.97;1.40;;;;;;;;;;5070138;28;20265;-57
2023/05/20 10:07:20;;;;;;;3.63;1.30;;;;;;;;;;5072164;28;20199;-57
2023/05/20 10:09:52;;;;;;;6.53;1.83;;;;;;;;;;5072023;28;20196;-56
2023/05/20 10:12:23;;;;;;;2.63;1.60;;;;;;;;;;5072152;28;20282;-56
2023/05/20 10:14:55;;;;;;;3.00;1.37;;;;;;;;;;5072329;28;20199;-56
2023/05/20 10:17:25;;;;;;;2.00;1.50;;;;;;;;;;5071820;28;20674;-56
2023/05/20 10:19:57;;;;;;;4.43;1.70;;;;;;;;;;5070669;28;20249;-57
2023/05/20 10:22:27;;;;;;;3.30;1.67;;;;;;;;;;5071923;28;20195;-56
2023/05/20 10:24:57;;;;;;;3.47;2.20;;;;;;;;;;5071404;28;20679;-57
2023/05/20 10:27:23;;;;;;;2.93;1.60;;;;;;;;;;5071702;28;20548;-56
2023/05/20 10:29:52;;;;;;;3.27;1.60;;;;;;;;;;5071740;28;20689;-56
2023/05/20 10:32:25;;;;;;;4.37;2.40;;;;;;;;;;5071584;28;20210;-56
2023/05/20 10:34:51;;;;;;;2.60;1.60;;;;;;;;;;5071793;28;20210;-56
2023/05/20 10:37:23;;;;;;;4.33;1.70;;;;;;;;;;5071631;28;20697;-56
2023/05/20 10:39:49;;;;;;;2.33;1.53;;;;;;;;;;5071679;28;20243;-56
2023/05/20 10:42:15;;;;;;;1.40;1.30;;;;;;;;;;5071659;28;20215;-57
2023/05/20 10:44:42;;;;;;;3.13;1.60;;;;;;;;;;5071586;28;20220;-57
2023/05/20 10:47:09;;;;;;;2.23;1.70;;;;;;;;;;5071737;28;20285;-57
2023/05/20 10:49:36;;;;;;;2.63;1.50;;;;;;;;;;5071572;28;20666;-56
2023/05/20 10:52:02;;;;;;;1.40;1.30;;;;;;;;;;5071783;28;20192;-58
2023/05/20 10:54:28;;;;;;;1.67;1.50;;;;;;;;;;5071376;28;20560;-57
2023/05/20 10:56:54;;;;;;;2.40;1.63;;;;;;;;;;5071675;28;20226;-57
2023/05/20 10:59:20;;;;;;;3.70;1.90;;;;;;;;;;5071566;28;20210;-56
2023/05/20 11:01:47;;;;;;;3.10;1.50;;;;;;;;;;5071338;28;20256;-55
2023/05/20 11:04:15;;;;;;;2.13;1.60;;;;;;;;;;5071505;28;20219;-56
2023/05/20 11:06:49;;;;;;;1.67;1.43;;;;;;;;;;5071336;28;20568;-56
2023/05/20 11:09:16;;;;;;;3.80;1.90;;;;;;;;;;5071550;28;20286;-55
2023/05/20 11:11:42;;;;;;;5.20;4.70;;;;;;;;;;5071141;28;20290;-56
2023/05/20 11:14:08;;;;;;;1.77;1.40;;;;;;;;;;5071383;28;20739;-56
2023/05/20 11:16:34;;;;;;;3.33;1.50;;;;;;;;;;5071278;28;20228;-56
2023/05/20 11:19:00;;;;;;;2.67;1.50;;;;;;;;;;5071398;28;20659;-56
2023/05/20 11:21:27;;;;;;;3.70;1.70;;;;;;;;;;5071159;28;20226;-56
2023/05/20 11:23:53;;;;;;;4.10;1.57;;;;;;;;;;5071446;28;20226;-55
2023/05/20 11:26:20;;;;;;;2.43;1.63;;;;;;;;;;5071455;28;20195;-56
2023/05/20 11:28:46;;;;;;;3.33;1.50;;;;;;;;;;5071308;28;20201;-56
2023/05/20 11:31:12;;;;;;;4.10;1.80;;;;;;;;;;5071218;28;20228;-56
2023/05/20 11:33:41;;;;;;;3.57;1.70;;;;;;;;;;5071147;28;20193;-56
2023/05/20 11:36:08;;;;;;;2.20;1.67;;;;;;;;;;5072719;28;20226;-56
2023/05/20 11:38:36;;;;;;;1.60;1.50;;;;;;;;;;5074820;28;20196;-56
2023/05/20 11:41:02;;;;;;;2.90;1.60;;;;;;;;;;5074864;28;20231;-56
2023/05/20 11:43:28;;;;;;;3.83;1.70;;;;;;;;;;5074697;28;20206;-56
2023/05/20 11:45:58;;;;;;;2.97;1.73;;;;;;;;;;5074892;28;20202;-56
2023/05/20 11:48:24;;;;;;;5.27;2.03;;;;;;;;;;5074663;28;20632;-56
2023/05/20 11:50:52;;;;;;;2.00;1.80;;;;;;;;;;5074619;28;20203;-56
2023/05/20 11:53:19;;;;;;;2.00;1.60;;;;;;;;;;5074704;28;20307;-57
2023/05/20 11:55:47;;;;;;;3.20;1.50;;;;;;;;;;5074492;28;20198;-56
2023/05/20 11:58:16;;;;;;;2.50;1.70;;;;;;;;;;5074563;28;20215;-58
2023/05/20 12:00:42;;;;;;;1.60;1.50;;;;;;;;;;5074191;28;20227;-56
2023/05/20 12:03:07;;;;;;;2.90;1.60;;;;;;;;;;5074611;28;20203;-56
2023/05/20 12:05:33;;;;;;;6.43;4.33;;;;;;;;;;5074227;28;20225;-57
2023/05/20 12:07:59;;;;;;;2.77;2.10;;;;;;;;;;5074260;28;20538;-57
2023/05/20 12:10:25;;;;;;;2.00;1.50;;;;;;;;;;5074366;28;20187;-57
2023/05/20 12:12:53;;;;;;;1.83;1.63;;;;;;;;;;5074245;28;20292;-60
2023/05/20 12:15:19;;;;;;;3.23;1.73;;;;;;;;;;5074266;28;20203;-56
2023/05/20 12:17:46;;;;;;;3.37;2.17;;;;;;;;;;5073949;28;20298;-56
2023/05/20 12:20:14;;;;;;;2.07;1.70;;;;;;;;;;5073998;28;20215;-57
2023/05/20 12:22:40;;;;;;;1.70;1.50;;;;;;;;;;5073734;28;20683;-57
2023/05/20 12:25:06;;;;;;;2.23;1.60;;;;;;;;;;5074483;28;20246;-56
2023/05/20 12:27:32;;;;;;;1.77;1.67;;;;;;;;;;5073952;28;20250;-56
2023/05/20 12:30:00;;;;;;;3.57;1.70;;;;;;;;;;5073302;28;20187;-57
2023/05/20 12:32:26;;;;;;;1.93;1.63;;;;;;;;;;5073802;28;20204;-57
2023/05/20 12:34:52;;;;;;;1.83;1.50;;;;;;;;;;5073644;28;20318;-56
2023/05/20 12:37:18;;;;;;;2.77;1.60;;;;;;;;;;5073785;28;20279;-56
2023/05/20 12:39:44;;;;;;;2.00;1.70;;;;;;;;;;5073453;28;20223;-56
2023/05/20 12:42:10;;;;;;;2.07;1.60;;;;;;;;;;5073859;28;20203;-56
2023/05/20 12:44:36;;;;;;;2.97;1.80;;;;;;;;;;5073405;28;20230;-57
2023/05/20 12:47:03;;;;;;;2.83;2.63;;;;;;;;;;5073539;28;20286;-57
2023/05/20 12:49:29;;;;;;;2.03;1.83;;;;;;;;;;5073504;28;20210;-57
2023/05/20 12:51:55;;;;;;;3.03;1.57;;;;;;;;;;5073466;28;20209;-56
2023/05/20 12:54:21;;;;;;;3.00;1.70;;;;;;;;;;5073610;28;20199;-56
2023/05/20 12:56:47;;;;;;;1.73;1.53;;;;;;;;;;5073340;28;20274;-57
2023/05/20 12:59:13;;;;;;;3.33;1.60;;;;;;;;;;5073467;28;20222;-57
2023/05/20 13:01:39;;;;;;;3.00;1.60;;;;;;;;;;5072384;28;20704;-57
2023/05/20 13:04:06;;;;;;;4.70;1.77;;;;;;;;;;5065108;28;20640;-56
2023/05/20 13:06:33;;;;;;;3.17;1.63;;;;;;;;;;5062354;28;20208;-56
2023/05/20 13:08:59;;;;;;;2.63;1.70;;;;;;;;;;5060616;28;20196;-57
2023/05/20 13:11:25;;;;;;;2.23;1.73;;;;;;;;;;5062609;28;20224;-57
2023/05/20 13:13:51;;;;;;;2.43;1.80;;;;;;;;;;5068046;28;20226;-57
2023/05/20 13:16:17;;;;;;;2.00;1.80;;;;;;;;;;5073070;28;20650;-56
2023/05/20 13:18:43;;;;;;;2.10;1.80;;;;;;;;;;5072497;28;20215;-56
2023/05/20 13:21:10;;;;;;;2.13;1.60;;;;;;;;;;5072334;28;20248;-56
2023/05/20 13:23:37;;;;;;;3.13;2.83;;;;;;;;;;5072816;28;20212;-56
2023/05/20 13:26:03;;;;;;;1.93;1.83;;;;;;;;;;5072833;28;20207;-56
2023/05/20 13:28:29;;;;;;;2.43;1.77;;;;;;;;;;5072766;28;20192;-56
2023/05/20 13:30:55;;;;;;;2.67;1.67;;;;;;;;;;5072567;28;20197;-56
2023/05/20 13:33:22;;;;;;;1.93;1.67;;;;;;;;;;5072588;28;20209;-56
2023/05/20 13:35:48;;;;;;;1.87;1.77;;;;;;;;;;5072305;28;20726;-56
2023/05/20 13:38:16;;;;;;;1.83;1.70;;;;;;;;;;5072367;28;20203;-56
2023/05/20 13:40:42;;;;;;;3.70;2.10;;;;;;;;;;5072224;28;20220;-57
2023/05/20 13:43:08;;;;;;;2.90;1.97;;;;;;;;;;5072416;28;20197;-56
2023/05/20 13:45:34;;;;;;;1.70;1.60;;;;;;;;;;5072278;28;20246;-56
2023/05/20 13:48:00;;;;;;;2.03;1.70;;;;;;;;;;5072180;28;20195;-57
2023/05/20 13:50:26;;;;;;;2.17;1.93;;;;;;;;;;5072277;28;20200;-57
2023/05/20 13:52:52;;;;;;;4.27;3.90;;;;;;;;;;5072126;28;20235;-58
2023/05/20 13:55:20;;;;;;;2.23;1.87;;;;;;;;;;5068517;28;20230;-58
2023/05/20 13:57:46;;;;;;;2.03;1.70;;;;;;;;;;5069245;28;20583;-58
2023/05/20 14:00:12;;;;;;;4.00;1.73;;;;;;;;;;5071745;28;20250;-58
2023/05/20 14:02:39;;;;;;;2.17;1.53;;;;;;;;;;5071968;28;20210;-59
2023/05/20 14:05:06;;;;;;;4.33;1.97;;;;;;;;;;5072171;28;20215;-58
2023/05/20 14:07:35;;;;;;;2.43;1.73;;;;;;;;;;5072094;28;20196;-57
2023/05/20 14:10:01;;;;;;;2.13;1.93;;;;;;;;;;5071958;28;20279;-56
2023/05/20 14:12:29;;;;;;;3.10;1.87;;;;;;;;;;5071890;28;20222;-58
2023/05/20 14:14:55;;;;;;;4.07;1.97;;;;;;;;;;5071693;28;20200;-58
2023/05/20 14:17:21;;;;;;;2.70;1.80;;;;;;;;;;5071954;28;20584;-58
2023/05/20 14:19:47;;;;;;;1.97;1.77;;;;;;;;;;5071574;28;20216;-58
2023/05/20 14:22:14;;;;;;;3.53;2.53;;;;;;;;;;5071750;28;20230;-58
2023/05/20 14:24:40;;;;;;;1.97;1.77;;;;;;;;;;5070866;28;20203;-57
2023/05/20 14:27:06;;;;;;;2.77;1.73;;;;;;;;;;5071583;28;20200;-58
2023/05/20 14:29:34;;;;;;;2.23;1.83;;;;;;;;;;5071794;28;20197;-58
2023/05/20 14:32:00;;;;;;;1.70;1.60;;;;;;;;;;5071427;28;20211;-59
2023/05/20 14:34:26;;;;;;;2.50;1.70;;;;;;;;;;5071796;28;20195;-59
2023/05/20 14:36:52;;;;;;;2.77;2.00;;;;;;;;;;5071529;28;20232;-58
2023/05/20 14:39:18;;;;;;;1.70;1.60;;;;;;;;;;5071851;28;20246;-57